createdAt,value
2018-09-24T00:01:19.694Z,89.21
2018-09-24T00:03:47.909Z,88.92
2018-09-24T00:06:16.049Z,88.53
2018-09-24T00:08:44.259Z,88.73
2018-09-24T00:11:12.498Z,89.34
2018-09-24T00:13:40.725Z,89.12
2018-09-24T00:16:08.943Z,88.61
2018-09-24T00:18:37.219Z,88.33
2018-09-24T00:21:05.399Z,88.65
2018-09-24T00:23:33.712Z,88.28
2018-09-24T00:26:01.883Z,88.62
2018-09-24T00:28:31.166Z,87.91
2018-09-24T00:30:59.431Z,87.95
2018-09-24T00:33:27.624Z,87.80
2018-09-24T00:35:55.874Z,88.16
2018-09-24T00:38:24.211Z,87.55
2018-09-24T00:40:52.519Z,87.90
2018-09-24T00:43:20.652Z,88.30
2018-09-24T00:45:48.878Z,87.75
2018-09-24T00:48:17.115Z,87.63
2018-09-24T00:50:45.386Z,87.04
2018-09-24T00:53:13.570Z,86.54
2018-09-24T00:55:41.850Z,87.33
2018-09-24T00:58:10.047Z,88.19
2018-09-24T01:00:38.304Z,87.64
2018-09-24T01:03:06.720Z,87.82
2018-09-24T01:05:34.853Z,87.46
2018-09-24T01:08:03.102Z,87.68
2018-09-24T01:10:31.274Z,87.59
2018-09-24T01:12:59.538Z,88.29
2018-09-24T01:15:27.750Z,87.20
2018-09-24T01:17:55.956Z,86.91
2018-09-24T01:20:24.232Z,87.14
2018-09-24T01:22:52.356Z,87.75
2018-09-24T01:25:20.520Z,87.35
2018-09-24T01:27:48.756Z,87.70
2018-09-24T01:30:17.060Z,87.08
2018-09-24T01:32:45.185Z,87.53
2018-09-24T01:35:13.562Z,87.54
2018-09-24T01:37:41.834Z,87.46
2018-09-24T01:40:10.011Z,87.27
2018-09-24T01:42:38.207Z,87.17
2018-09-24T01:45:06.431Z,87.51
2018-09-24T01:47:34.558Z,86.83
2018-09-24T01:50:02.786Z,87.18
2018-09-24T01:52:30.983Z,86.41
2018-09-24T01:54:59.118Z,86.47
2018-09-24T01:57:34.087Z,87.17
2018-09-24T02:00:02.188Z,86.97
2018-09-24T02:02:30.389Z,86.82
2018-09-24T02:04:58.607Z,87.05
2018-09-24T02:07:26.838Z,86.48
2018-09-24T02:09:55.031Z,86.72
2018-09-24T02:12:23.340Z,87.20
2018-09-24T02:14:51.465Z,86.85
2018-09-24T02:17:21.655Z,86.61
2018-09-24T02:19:51.110Z,85.87
2018-09-24T02:22:25.593Z,85.85
2018-09-24T02:24:54.265Z,86.35
2018-09-24T02:27:22.588Z,85.99
2018-09-24T02:29:50.719Z,86.69
2018-09-24T02:32:18.873Z,86.49
2018-09-24T02:34:47.676Z,86.01
2018-09-24T02:37:16.988Z,86.34
2018-09-24T02:39:45.123Z,86.36
2018-09-24T02:42:13.283Z,86.71
2018-09-24T02:44:41.521Z,86.11
2018-09-24T02:47:09.732Z,85.98
2018-09-24T02:49:38.525Z,86.68
2018-09-24T02:52:06.693Z,85.93
2018-09-24T02:54:35.827Z,86.23
2018-09-24T02:57:04.108Z,87.01
2018-09-24T02:59:32.266Z,86.39
2018-09-24T03:02:00.394Z,87.15
2018-09-24T03:04:28.516Z,87.40
2018-09-24T03:06:56.655Z,86.34
2018-09-24T03:09:25.040Z,86.70
2018-09-24T03:11:53.180Z,87.25
2018-09-24T03:14:25.782Z,87.05
2018-09-24T03:16:54.005Z,87.21
2018-09-24T03:19:22.268Z,86.59
2018-09-24T03:21:50.409Z,86.70
2018-09-24T03:24:18.557Z,87.17
2018-09-24T03:26:46.735Z,86.94
2018-09-24T03:29:21.455Z,87.16
2018-09-24T03:31:49.654Z,87.23
2018-09-24T03:34:18.723Z,87.31
2018-09-24T03:36:47.497Z,86.94
2018-09-24T03:39:15.638Z,86.97
2018-09-24T03:41:44.257Z,86.26
2018-09-24T03:44:12.541Z,86.89
2018-09-24T03:46:41.211Z,86.49
2018-09-24T03:49:09.790Z,87.14
2018-09-24T03:51:38.083Z,86.87
2018-09-24T03:54:06.547Z,87.30
2018-09-24T03:56:34.728Z,87.05
2018-09-24T03:59:03.784Z,86.67
2018-09-24T04:01:31.788Z,86.66
2018-09-24T04:04:05.468Z,86.71
2018-09-24T04:06:39.356Z,86.88
2018-09-24T04:09:13.919Z,87.25
2018-09-24T04:11:47.890Z,86.20
2018-09-24T04:14:21.440Z,86.23
2018-09-24T04:16:55.502Z,85.66
2018-09-24T04:19:29.465Z,86.62
2018-09-24T04:22:03.130Z,86.20
2018-09-24T04:24:36.667Z,86.58
2018-09-24T04:27:10.387Z,86.04
2018-09-24T04:29:43.922Z,86.06
2018-09-24T04:32:17.440Z,86.57
2018-09-24T04:34:50.924Z,86.46
2018-09-24T04:37:24.352Z,85.86
2018-09-24T04:39:57.820Z,85.84
2018-09-24T04:42:31.316Z,86.26
2018-09-24T04:45:04.908Z,86.61
2018-09-24T04:47:38.518Z,86.60
2018-09-24T04:50:12.258Z,85.72
2018-09-24T04:52:45.719Z,85.67
2018-09-24T04:55:19.192Z,86.18
2018-09-24T04:57:52.692Z,86.22
2018-09-24T05:00:26.326Z,85.86
2018-09-24T05:02:59.846Z,85.89
2018-09-24T05:05:33.596Z,85.67
2018-09-24T05:08:07.090Z,85.74
2018-09-24T05:10:40.563Z,86.09
2018-09-24T05:13:14.030Z,85.36
2018-09-24T05:15:47.514Z,84.82
2018-09-24T05:18:21.704Z,85.93
2018-09-24T05:20:55.178Z,85.79
2018-09-24T05:23:28.734Z,85.53
2018-09-24T05:26:02.228Z,84.58
2018-09-24T05:28:42.589Z,84.59
2018-09-24T05:31:16.202Z,84.80
2018-09-24T05:33:50.340Z,85.12
2018-09-24T05:36:24.885Z,83.90
2018-09-24T05:38:58.414Z,84.11
2018-09-24T05:41:32.686Z,84.68
2018-09-24T05:44:06.954Z,83.88
2018-09-24T05:46:41.645Z,84.20
2018-09-24T05:49:15.350Z,83.35
2018-09-24T05:51:48.957Z,82.83
2018-09-24T05:54:22.538Z,83.58
2018-09-24T05:56:56.263Z,83.53
2018-09-24T05:59:30.730Z,83.32
2018-09-24T06:02:04.371Z,82.92
2018-09-24T06:04:37.882Z,82.63
2018-09-24T06:07:11.662Z,83.47
2018-09-24T06:09:45.260Z,82.75
2018-09-24T06:12:19.095Z,81.55
2018-09-24T06:14:54.154Z,81.82
2018-09-24T06:17:27.829Z,81.89
2018-09-24T06:20:01.396Z,81.69
2018-09-24T06:22:35.291Z,81.19
2018-09-24T06:25:08.735Z,80.56
2018-09-24T06:27:42.236Z,80.15
2018-09-24T06:30:15.970Z,80.36
2018-09-24T06:32:49.570Z,80.04
2018-09-24T06:35:23.219Z,79.75
2018-09-24T06:37:57.183Z,79.75
2018-09-24T06:40:30.651Z,79.26
2018-09-24T06:43:04.173Z,78.45
2018-09-24T06:45:37.697Z,79.33
2018-09-24T06:48:11.240Z,79.26
2018-09-24T06:50:46.431Z,78.85
2018-09-24T06:53:19.940Z,77.80
2018-09-24T06:55:53.634Z,77.51
2018-09-24T06:58:27.377Z,76.11
2018-09-24T07:01:00.983Z,76.11
2018-09-24T07:03:34.573Z,75.30
2018-09-24T07:06:08.446Z,75.91
2018-09-24T07:08:41.954Z,74.51
2018-09-24T07:11:15.545Z,74.43
2018-09-24T07:13:49.189Z,75.28
2018-09-24T07:16:22.657Z,75.14
2018-09-24T07:18:56.728Z,74.12
2018-09-24T07:21:30.467Z,74.11
2018-09-24T07:24:04.066Z,74.14
2018-09-24T07:26:37.803Z,74.16
2018-09-24T07:29:11.677Z,73.63
2018-09-24T07:31:45.391Z,73.25
2018-09-24T07:34:19.100Z,73.09
2018-09-24T07:36:53.371Z,73.04
2018-09-24T07:39:26.918Z,72.77
2018-09-24T07:42:00.437Z,72.00
2018-09-24T07:44:34.035Z,71.04
2018-09-24T07:47:07.543Z,70.93
2018-09-24T07:49:41.045Z,70.95
2018-09-24T07:52:14.634Z,70.53
2018-09-24T07:54:48.133Z,69.85
2018-09-24T07:57:21.606Z,70.74
2018-09-24T07:59:55.416Z,70.38
2018-09-24T08:02:28.925Z,69.99
2018-09-24T08:05:02.474Z,69.08
2018-09-24T08:07:36.139Z,69.09
2018-09-24T08:10:09.716Z,68.36
2018-09-24T08:12:43.477Z,67.76
2018-09-24T08:15:17.250Z,67.38
2018-09-24T08:17:50.843Z,68.17
2018-09-24T08:20:24.305Z,67.50
2018-09-24T08:22:57.786Z,67.93
2018-09-24T08:25:31.332Z,67.17
2018-09-24T08:28:04.949Z,67.20
2018-09-24T08:30:38.814Z,66.52
2018-09-24T08:33:12.491Z,66.18
2018-09-24T08:35:45.960Z,64.54
2018-09-24T08:38:19.796Z,64.33
2018-09-24T08:40:54.571Z,64.24
2018-09-24T08:43:28.135Z,64.82
2018-09-24T08:46:01.744Z,64.65
2018-09-24T08:48:35.209Z,64.15
2018-09-24T08:51:08.709Z,64.50
2018-09-24T08:53:42.497Z,64.15
2018-09-24T08:56:16.152Z,63.00
2018-09-24T08:58:49.577Z,62.66
2018-09-24T09:01:23.011Z,62.51
2018-09-24T09:03:56.472Z,63.31
2018-09-24T09:06:29.999Z,62.44
2018-09-24T09:09:04.189Z,62.21
2018-09-24T09:11:37.918Z,60.48
2018-09-24T09:14:11.765Z,60.48
2018-09-24T09:16:45.192Z,60.07
2018-09-24T09:19:18.694Z,59.49
2018-09-24T09:21:52.223Z,59.80
2018-09-24T09:24:26.183Z,59.30
2018-09-24T09:26:59.570Z,59.85
2018-09-24T09:29:33.498Z,59.95
2018-09-24T09:32:06.845Z,59.57
2018-09-24T09:34:40.262Z,59.82
2018-09-24T09:37:13.735Z,59.25
2018-09-24T09:39:47.221Z,59.57
2018-09-24T09:42:20.957Z,59.08
2018-09-24T09:44:55.237Z,58.35
2018-09-24T09:47:28.780Z,57.75
2018-09-24T09:50:02.492Z,57.59
2018-09-24T09:52:35.928Z,57.76
2018-09-24T09:55:09.481Z,57.68
2018-09-24T09:57:43.047Z,57.17
2018-09-24T10:00:16.599Z,56.95
2018-09-24T10:02:50.138Z,57.21
2018-09-24T10:05:25.227Z,56.83
2018-09-24T10:07:58.877Z,56.78
2018-09-24T10:10:33.121Z,56.27
2018-09-24T10:13:06.745Z,56.70
2018-09-24T10:15:40.254Z,56.69
2018-09-24T10:18:13.816Z,56.69
2018-09-24T10:20:47.645Z,56.28
2018-09-24T10:23:21.225Z,56.91
2018-09-24T10:25:54.968Z,56.12
2018-09-24T10:28:28.649Z,56.42
2018-09-24T10:31:02.340Z,56.90
2018-09-24T10:33:35.968Z,56.48
2018-09-24T10:36:09.526Z,56.05
2018-09-24T10:38:43.073Z,55.99
2018-09-24T10:41:16.523Z,56.05
2018-09-24T10:43:50.014Z,55.31
2018-09-24T10:46:23.529Z,55.87
2018-09-24T10:48:57.311Z,55.90
2018-09-24T10:51:30.817Z,55.06
2018-09-24T10:54:06.090Z,53.90
2018-09-24T10:56:40.045Z,52.36
2018-09-24T10:59:13.673Z,51.82
2018-09-24T11:01:47.192Z,51.51
2018-09-24T11:04:21.307Z,51.69
2018-09-24T11:06:54.938Z,51.88
2018-09-24T11:09:28.564Z,51.20
2018-09-24T11:12:02.210Z,50.51
2018-09-24T11:14:35.972Z,50.47
2018-09-24T11:17:09.598Z,49.67
2018-09-24T11:19:43.240Z,49.38
2018-09-24T11:22:16.710Z,49.80
2018-09-24T11:24:50.319Z,48.28
2018-09-24T11:27:24.235Z,48.29
2018-09-24T11:29:58.036Z,48.54
2018-09-24T11:32:32.477Z,47.85
2018-09-24T11:35:06.050Z,47.53
2018-09-24T11:37:39.733Z,48.39
2018-09-24T11:40:13.364Z,49.09
2018-09-24T11:42:46.933Z,49.35
2018-09-24T11:45:20.331Z,49.92
2018-09-24T11:47:53.868Z,53.79
2018-09-24T11:50:27.652Z,59.28
2018-09-24T11:53:01.380Z,54.03
2018-09-24T11:55:34.941Z,54.95
2018-09-24T11:58:08.446Z,54.29
2018-09-24T12:00:42.178Z,55.00
2018-09-24T12:03:15.753Z,57.18
2018-09-24T12:05:49.250Z,58.08
2018-09-24T12:08:22.944Z,61.74
2018-09-24T12:18:05.554Z,69.97
2018-09-24T12:20:39.006Z,69.21
2018-09-24T12:23:12.499Z,72.31
2018-09-24T12:25:46.259Z,69.25
2018-09-24T12:28:19.840Z,67.03
2018-09-24T12:30:53.442Z,70.84
2018-09-24T12:33:27.122Z,71.72
2018-09-24T12:36:01.329Z,74.08
2018-09-24T12:38:35.077Z,76.29
2018-09-24T12:41:08.553Z,76.33
2018-09-24T12:43:42.850Z,78.66
2018-09-24T12:46:16.379Z,79.92
2018-09-24T12:48:50.080Z,78.58
2018-09-24T12:51:23.669Z,78.60
2018-09-24T12:53:57.376Z,76.33
2018-09-24T12:56:30.856Z,77.47
2018-09-24T12:59:04.885Z,75.08
2018-09-24T13:01:38.418Z,75.54
2018-09-24T13:04:12.127Z,74.32
2018-09-24T13:06:45.647Z,74.75
2018-09-24T13:09:19.213Z,73.44
2018-09-24T13:11:52.766Z,73.11
2018-09-24T13:14:26.693Z,72.63
2018-09-24T13:17:00.351Z,69.79
2018-09-24T13:19:34.553Z,68.73
2018-09-24T13:22:08.178Z,67.30
2018-09-24T13:24:43.482Z,66.39
2018-09-24T13:27:17.620Z,67.09
2018-09-24T13:29:51.492Z,65.12
2018-09-24T13:32:25.272Z,65.41
2018-09-24T13:34:58.758Z,63.53
2018-09-24T13:37:32.220Z,67.69
2018-09-24T13:40:05.894Z,70.29
2018-09-24T13:42:39.638Z,70.29
2018-09-24T13:45:13.127Z,70.55
2018-09-24T13:47:46.878Z,71.47
2018-09-24T13:50:20.633Z,71.37
2018-09-24T13:52:54.290Z,71.22
2018-09-24T13:55:27.920Z,71.50
2018-09-24T13:58:01.534Z,69.52
2018-09-24T14:00:35.002Z,70.22
2018-09-24T14:03:08.712Z,69.13
2018-09-24T14:05:42.419Z,69.22
2018-09-24T14:08:16.551Z,68.85
2018-09-24T14:10:50.128Z,67.44
2018-09-24T14:13:24.325Z,68.66
2018-09-24T14:15:58.042Z,65.89
2018-09-24T14:18:33.190Z,66.94
2018-09-24T14:21:07.349Z,65.53
2018-09-24T14:23:42.456Z,66.92
2018-09-24T14:26:16.555Z,65.62
2018-09-24T14:28:53.894Z,64.35
2018-09-24T14:31:27.585Z,63.98
2018-09-24T14:34:01.135Z,64.18
2018-09-24T14:36:34.843Z,64.41
2018-09-24T14:39:14.055Z,64.65
2018-09-24T14:41:48.786Z,64.41
2018-09-24T14:44:22.286Z,62.20
2018-09-24T14:46:55.780Z,62.71
2018-09-24T14:49:29.286Z,62.62
2018-09-24T14:52:04.310Z,60.52
2018-09-24T14:54:38.543Z,60.38
2018-09-24T14:57:12.141Z,60.66
2018-09-24T14:59:45.636Z,60.96
2018-09-24T15:02:20.326Z,62.41
2018-09-24T15:04:53.955Z,63.88
2018-09-24T15:07:27.564Z,63.01
2018-09-24T15:10:01.720Z,64.04
2018-09-24T15:12:36.889Z,63.30
2018-09-24T15:15:10.608Z,64.95
2018-09-24T15:17:44.126Z,67.05
2018-09-24T15:20:17.745Z,68.84
2018-09-24T15:22:51.725Z,70.81
2018-09-24T15:25:25.302Z,71.63
2018-09-24T15:27:59.248Z,74.14
2018-09-24T15:30:32.794Z,74.67
2018-09-24T15:33:07.255Z,73.55
2018-09-24T15:35:41.085Z,75.04
2018-09-24T15:38:14.591Z,72.39
2018-09-24T15:40:48.781Z,75.50
2018-09-24T15:43:22.514Z,75.17
2018-09-24T15:45:59.179Z,73.93
2018-09-24T15:48:32.812Z,72.44
2018-09-24T15:51:06.379Z,73.97
2018-09-24T15:53:42.971Z,71.91
2018-09-24T15:56:16.920Z,70.78
2018-09-24T15:58:50.476Z,69.67
2018-09-24T16:01:24.072Z,68.28
2018-09-24T16:03:57.671Z,69.42
2018-09-24T16:06:31.142Z,71.46
2018-09-24T16:09:05.005Z,69.11
2018-09-24T16:11:38.740Z,67.75
2018-09-24T16:14:12.486Z,69.38
2018-09-24T16:16:46.359Z,68.66
2018-09-24T16:19:20.248Z,66.83
2018-09-24T16:21:53.771Z,66.88
2018-09-24T16:24:28.257Z,68.17
2018-09-24T16:27:05.490Z,67.89
2018-09-24T16:29:38.991Z,68.10
2018-09-24T16:32:12.775Z,66.97
2018-09-24T16:34:46.442Z,69.13
2018-09-24T16:37:20.017Z,68.29
2018-09-24T16:39:53.505Z,67.47
2018-09-24T16:42:26.995Z,68.09
2018-09-24T16:45:00.708Z,68.65
2018-09-24T16:47:34.312Z,66.95
2018-09-24T16:50:10.614Z,65.80
2018-09-24T16:52:44.281Z,66.38
2018-09-24T16:55:17.932Z,64.31
2018-09-24T16:57:51.601Z,64.54
2018-09-24T17:00:25.419Z,65.48
2018-09-24T17:02:59.017Z,65.03
2018-09-24T17:05:32.743Z,64.08
2018-09-24T17:08:06.199Z,63.72
2018-09-24T17:10:39.737Z,62.65
2018-09-24T17:13:13.271Z,61.65
2018-09-24T17:15:48.070Z,62.70
2018-09-24T17:18:21.613Z,60.80
2018-09-24T17:20:55.536Z,59.97
2018-09-24T17:23:29.362Z,60.71
2018-09-24T17:26:03.245Z,62.39
2018-09-24T17:28:37.887Z,61.51
2018-09-24T17:31:11.505Z,61.11
2018-09-24T17:33:45.791Z,61.54
2018-09-24T17:36:19.771Z,62.13
2018-09-24T17:38:59.105Z,61.65
2018-09-24T17:41:32.755Z,61.26
2018-09-24T17:44:06.388Z,62.03
2018-09-24T17:46:40.065Z,61.62
2018-09-24T17:49:13.584Z,62.05
2018-09-24T17:51:50.109Z,61.86
2018-09-24T17:54:23.766Z,62.58
2018-09-24T17:56:57.276Z,63.55
2018-09-24T17:59:31.531Z,63.33
2018-09-24T18:02:05.043Z,63.79
2018-09-24T18:04:40.175Z,63.56
2018-09-24T18:07:13.682Z,63.22
2018-09-24T18:09:47.173Z,63.39
2018-09-24T18:12:20.857Z,63.53
2018-09-24T18:14:54.578Z,63.05
2018-09-24T18:17:28.626Z,63.16
2018-09-24T18:20:02.236Z,62.51
2018-09-24T18:22:36.329Z,62.21
2018-09-24T18:25:09.915Z,62.19
2018-09-24T18:27:43.536Z,62.85
2018-09-24T18:30:17.125Z,63.47
2018-09-24T18:32:50.620Z,63.39
2018-09-24T18:35:24.188Z,63.76
2018-09-24T18:37:57.826Z,63.98
2018-09-24T18:40:32.198Z,64.24
2018-09-24T18:43:05.996Z,64.74
2018-09-24T18:45:39.729Z,65.03
2018-09-24T18:48:17.617Z,64.51
2018-09-24T18:50:51.333Z,64.10
2018-09-24T18:53:25.687Z,63.03
2018-09-24T18:55:59.432Z,62.40
2018-09-24T18:58:33.016Z,61.91
2018-09-24T19:01:06.613Z,61.86
2018-09-24T19:03:40.153Z,61.70
2018-09-24T19:06:13.861Z,61.09
2018-09-24T19:08:47.532Z,61.09
2018-09-24T19:11:27.792Z,61.30
2018-09-24T19:13:55.321Z,61.67
2018-09-24T19:16:29.034Z,62.74
2018-09-24T19:19:03.317Z,63.65
2018-09-24T19:21:38.055Z,62.77
2018-09-24T19:24:11.721Z,62.75
2018-09-24T19:26:45.271Z,63.08
2018-09-24T19:29:18.830Z,62.90
2018-09-24T19:31:52.489Z,63.00
2018-09-24T19:34:26.237Z,64.31
2018-09-24T19:36:59.823Z,60.38
2018-09-24T19:39:33.566Z,61.11
2018-09-24T19:42:07.181Z,61.70
2018-09-24T19:44:41.500Z,61.13
2018-09-24T19:47:15.207Z,60.26
2018-09-24T19:49:49.116Z,60.52
2018-09-24T19:52:22.756Z,60.71
2018-09-24T19:54:57.364Z,60.81
2018-09-24T19:57:31.005Z,60.57
2018-09-24T20:00:04.617Z,60.55
2018-09-24T20:02:38.703Z,60.88
2018-09-24T20:05:14.091Z,61.53
2018-09-24T20:07:47.619Z,61.89
2018-09-24T20:10:21.289Z,62.47
2018-09-24T20:12:54.988Z,61.67
2018-09-24T20:15:28.893Z,62.59
2018-09-24T20:18:02.709Z,61.68
2018-09-24T20:20:36.632Z,62.60
2018-09-24T20:23:10.397Z,63.19
2018-09-24T20:25:44.282Z,63.35
2018-09-24T20:28:17.864Z,64.25
2018-09-24T20:30:51.321Z,64.51
2018-09-24T20:33:24.833Z,65.32
2018-09-24T20:35:59.076Z,64.99
2018-09-24T20:38:33.279Z,65.14
2018-09-24T20:41:07.494Z,65.79
2018-09-24T20:43:40.957Z,65.75
2018-09-24T20:46:14.637Z,66.12
2018-09-24T20:48:48.278Z,65.46
2018-09-24T20:51:21.903Z,65.96
2018-09-24T20:53:55.624Z,65.61
2018-09-24T20:56:29.320Z,64.88
2018-09-24T20:59:02.738Z,65.14
2018-09-24T21:01:36.406Z,64.98
2018-09-24T21:04:09.878Z,65.39
2018-09-24T21:06:43.375Z,65.35
2018-09-24T21:09:16.944Z,65.37
2018-09-24T21:11:50.502Z,64.18
2018-09-24T21:14:23.968Z,65.04
2018-09-24T21:16:57.464Z,65.46
2018-09-24T21:19:31.088Z,65.32
2018-09-24T21:22:05.890Z,65.51
2018-09-24T21:24:40.209Z,65.25
2018-09-24T21:27:15.619Z,65.15
2018-09-24T21:29:50.456Z,64.82
2018-09-24T21:32:24.116Z,65.21
2018-09-24T21:34:57.718Z,65.00
2018-09-24T21:37:31.396Z,64.69
2018-09-24T21:40:05.605Z,65.20
2018-09-24T21:42:39.139Z,66.07
2018-09-24T21:45:12.650Z,66.33
2018-09-24T21:47:46.930Z,65.89
2018-09-24T21:50:20.448Z,66.94
2018-09-24T21:52:53.984Z,67.11
2018-09-24T21:55:27.637Z,67.14
2018-09-24T21:58:01.126Z,66.94
2018-09-24T22:00:34.833Z,67.17
2018-09-24T22:03:08.496Z,67.52
2018-09-24T22:05:42.029Z,67.54
2018-09-24T22:08:15.551Z,68.38
2018-09-24T22:10:49.011Z,68.35
2018-09-24T22:13:22.613Z,67.78
2018-09-24T22:15:56.137Z,69.04
2018-09-24T22:18:29.650Z,69.51
2018-09-24T22:21:03.335Z,69.77
2018-09-24T22:23:37.005Z,69.59
2018-09-24T22:26:10.618Z,68.76
2018-09-24T22:28:44.156Z,69.83
2018-09-24T22:31:17.634Z,70.04
2018-09-24T22:33:51.271Z,70.00
2018-09-24T22:36:24.767Z,69.63
2018-09-24T22:38:58.252Z,69.63
2018-09-24T22:41:31.748Z,69.84
2018-09-24T22:44:05.343Z,70.40
2018-09-24T22:46:39.913Z,70.69
2018-09-24T22:49:13.491Z,71.27
2018-09-24T22:51:46.983Z,72.42
2018-09-24T22:54:20.608Z,71.05
2018-09-24T22:56:54.223Z,70.56
2018-09-24T22:59:27.764Z,71.14
2018-09-24T23:02:01.283Z,71.49
2018-09-24T23:04:35.718Z,71.67
2018-09-24T23:07:09.382Z,72.55
2018-09-24T23:09:46.286Z,72.43
2018-09-24T23:12:19.799Z,72.11
2018-09-24T23:14:53.322Z,72.23
2018-09-24T23:17:26.822Z,71.95
2018-09-24T23:20:00.333Z,72.29
2018-09-24T23:22:33.799Z,72.40
2018-09-24T23:25:07.363Z,73.05
2018-09-24T23:27:40.868Z,72.43
2018-09-24T23:30:14.373Z,72.98
2018-09-24T23:32:47.831Z,73.74
2018-09-24T23:35:21.387Z,72.89
2018-09-24T23:37:54.966Z,73.60
2018-09-24T23:40:28.452Z,73.47
2018-09-24T23:43:01.921Z,72.72
2018-09-24T23:45:35.404Z,73.32
2018-09-24T23:48:08.974Z,73.31
2018-09-24T23:50:42.468Z,74.61
2018-09-24T23:53:16.217Z,73.97
2018-09-24T23:55:49.954Z,74.48
2018-09-24T23:58:23.526Z,74.51
